Anzahl Datensätze: 144
min. Temperatur: -0.1 °C
max. Temperatur: 3.0 °C
max. Windgeschwindigkeit: 18.0 km/h
Niederschlagsumme: 0.5 mm
| Datum |
Zeit |
Temp °C |
Feuchte % |
Taupunkt °C |
Luftdruck hPa |
Wind km/h |
Windrichtung |
Strahlung w/m² |
Niederschlag mm |
|---|---|---|---|---|---|---|---|---|---|
| 18.02.2026 | 00:03 | 2.1 | 76 | -1.7 | 1017.3 | 4.3 | NNO | 0 | 0.0 |
| 18.02.2026 | 00:13 | 2.1 | 76 | -1.8 | 1017.3 | 6.1 | NNW | 0 | 0.0 |
| 18.02.2026 | 00:23 | 2.1 | 76 | -1.8 | 1017.2 | 5.0 | N | 0 | 0.0 |
| 18.02.2026 | 00:33 | 2.2 | 78 | -1.3 | 1017.3 | 2.2 | NNO | 0 | 0.0 |
| 18.02.2026 | 00:43 | 2.1 | 76 | -1.6 | 1017.1 | 10.8 | NW | 0 | 0.0 |
| 18.02.2026 | 00:53 | 1.9 | 77 | -1.7 | 1017.3 | 6.8 | N | 0 | 0.0 |
| 18.02.2026 | 01:03 | 2.1 | 76 | -1.8 | 1017.2 | 5.0 | NNW | 0 | 0.0 |
| 18.02.2026 | 01:13 | 2.0 | 76 | -1.8 | 1017.2 | 6.8 | N | 0 | 0.0 |
| 18.02.2026 | 01:23 | 2.1 | 76 | -1.7 | 1017.2 | 2.9 | WNW | 0 | 0.0 |
| 18.02.2026 | 01:33 | 2.0 | 76 | -1.8 | 1017.1 | 2.5 | NNW | 0 | 0.0 |
| 18.02.2026 | 01:43 | 1.7 | 78 | -1.8 | 1017.1 | 0.4 | NO | 0 | 0.0 |
| 18.02.2026 | 01:53 | 1.6 | 78 | -1.8 | 1017.2 | 0.4 | N | 0 | 0.0 |
| 18.02.2026 | 02:03 | 1.2 | 80 | -1.9 | 1017.3 | 2.2 | N | 0 | 0.0 |
| 18.02.2026 | 02:13 | 0.9 | 80 | -2.1 | 1017.3 | 4.0 | NO | 0 | 0.0 |
| 18.02.2026 | 02:23 | 1.3 | 79 | -2.0 | 1017.0 | 1.8 | NNO | 0 | 0.0 |
| 18.02.2026 | 02:33 | 0.8 | 81 | -2.2 | 1017.1 | 3.2 | N | 0 | 0.0 |
| 18.02.2026 | 02:43 | 0.6 | 82 | -2.2 | 1017.1 | 3.2 | NNO | 0 | 0.0 |
| 18.02.2026 | 02:53 | 0.3 | 83 | -2.3 | 1017.1 | 3.6 | N | 0 | 0.0 |
| 18.02.2026 | 03:04 | 0.1 | 83 | -2.4 | 1016.9 | 5.4 | NNO | 0 | 0.0 |
| 18.02.2026 | 03:14 | 0.0 | 83 | -2.5 | 1016.8 | 3.2 | NNO | 0 | 0.0 |
| 18.02.2026 | 03:24 | 0.1 | 83 | -2.4 | 1016.8 | 1.4 | NNO | 0 | 0.0 |
| 18.02.2026 | 03:34 | 0.4 | 84 | -2.0 | 1016.4 | 0.4 | N | 0 | 0.0 |
| 18.02.2026 | 03:44 | 0.3 | 84 | -2.1 | 1016.2 | 3.2 | NNO | 0 | 0.0 |
| 18.02.2026 | 03:54 | 0.2 | 83 | -2.4 | 1016.1 | 4.0 | NNO | 0 | 0.0 |
| 18.02.2026 | 04:04 | 0.1 | 84 | -2.4 | 1016.2 | 3.6 | NNO | 0 | 0.0 |
| 18.02.2026 | 04:14 | 0.2 | 82 | -2.5 | 1015.9 | 3.6 | NNO | 0 | 0.0 |
| 18.02.2026 | 04:24 | 0.4 | 82 | -2.3 | 1015.9 | 2.5 | S | 0 | 0.0 |
| 18.02.2026 | 04:34 | 0.3 | 84 | -2.1 | 1015.8 | 1.4 | NNO | 0 | 0.0 |
| 18.02.2026 | 04:44 | 0.2 | 84 | -2.1 | 1015.5 | 0.7 | N | 0 | 0.0 |
| 18.02.2026 | 04:54 | -0.1 | 83 | -2.5 | 1015.7 | 2.5 | NNO | 0 | 0.0 |
| 18.02.2026 | 05:04 | 0.1 | 81 | -2.7 | 1015.6 | 3.2 | N | 0 | 0.0 |
| 18.02.2026 | 05:14 | 0.5 | 82 | -2.2 | 1015.4 | 0.7 | S | 0 | 0.0 |
| 18.02.2026 | 05:24 | 0.3 | 84 | -2.2 | 1015.3 | 3.2 | NNO | 0 | 0.0 |
| 18.02.2026 | 05:34 | 0.3 | 85 | -2.0 | 1015.2 | 1.1 | NNO | 0 | 0.0 |
| 18.02.2026 | 05:44 | 0.4 | 83 | -2.1 | 1015.1 | 1.1 | NO | 0 | 0.0 |
| 18.02.2026 | 05:54 | 0.6 | 82 | -2.1 | 1015.0 | 1.1 | N | 0 | 0.0 |
| 18.02.2026 | 06:04 | 0.5 | 83 | -2.1 | 1014.8 | 1.4 | SSO | 0 | 0.0 |
| 18.02.2026 | 06:14 | 0.5 | 84 | -1.9 | 1014.8 | 1.1 | NNO | 0 | 0.0 |
| 18.02.2026 | 06:24 | 0.2 | 85 | -2.0 | 1014.9 | 2.5 | N | 0 | 0.0 |
| 18.02.2026 | 06:34 | 0.2 | 84 | -2.1 | 1014.8 | 1.8 | N | 0 | 0.0 |
| 18.02.2026 | 06:44 | 0.6 | 83 | -1.9 | 1014.7 | 0.4 | N | 0 | 0.0 |
| 18.02.2026 | 06:54 | 0.3 | 84 | -2.1 | 1014.8 | 2.2 | NNO | 0 | 0.0 |
| 18.02.2026 | 07:04 | 0.3 | 84 | -2.0 | 1014.7 | 3.2 | NNO | 0 | 0.0 |
| 18.02.2026 | 07:14 | 0.5 | 83 | -2.1 | 1014.7 | 2.5 | NNO | 0 | 0.0 |
| 18.02.2026 | 07:24 | 0.7 | 82 | -2.0 | 1014.5 | 1.8 | NNW | 2 | 0.0 |
| 18.02.2026 | 07:34 | 0.3 | 85 | -1.8 | 1014.6 | 0.7 | NO | 2 | 0.0 |
| 18.02.2026 | 07:44 | 0.4 | 85 | -1.8 | 1014.5 | 1.8 | S | 4 | 0.0 |
| 18.02.2026 | 07:54 | 0.4 | 84 | -1.9 | 1014.6 | 2.2 | NNO | 5 | 0.0 |
| 18.02.2026 | 08:04 | 0.8 | 84 | -1.6 | 1014.6 | 1.4 | N | 6 | 0.0 |
| 18.02.2026 | 08:14 | 0.4 | 85 | -1.9 | 1014.6 | 1.1 | N | 11 | 0.0 |
| 18.02.2026 | 08:25 | 0.6 | 83 | -1.9 | 1014.5 | 1.1 | NNO | 20 | 0.0 |
| 18.02.2026 | 08:35 | 1.2 | 80 | -1.8 | 1014.3 | 1.1 | N | 23 | 0.0 |
| 18.02.2026 | 08:45 | 1.1 | 83 | -1.4 | 1014.4 | 0.7 | N | 25 | 0.0 |
| 18.02.2026 | 08:55 | 1.3 | 83 | -1.3 | 1014.3 | 1.4 | S | 32 | 0.0 |
| 18.02.2026 | 09:05 | 0.9 | 85 | -1.3 | 1014.1 | 3.6 | S | 38 | 0.0 |
| 18.02.2026 | 09:15 | 1.1 | 82 | -1.6 | 1014.0 | 2.2 | NNO | 45 | 0.0 |
| 18.02.2026 | 09:25 | 1.4 | 82 | -1.4 | 1013.9 | 0.7 | NNO | 43 | 0.0 |
| 18.02.2026 | 09:35 | 1.4 | 85 | -0.9 | 1013.9 | 1.4 | SSW | 39 | 0.0 |
| 18.02.2026 | 09:45 | 1.2 | 83 | -1.4 | 1013.9 | 1.8 | SO | 44 | 0.0 |
| 18.02.2026 | 09:55 | 1.5 | 82 | -1.2 | 1013.7 | 0.7 | NNW | 35 | 0.0 |
| 18.02.2026 | 10:05 | 1.7 | 82 | -1.0 | 1013.5 | 0.7 | N | 41 | 0.0 |
| 18.02.2026 | 10:15 | 1.6 | 78 | -1.9 | 1013.3 | 1.1 | NNO | 40 | 0.0 |
| 18.02.2026 | 10:25 | 1.6 | 74 | -2.5 | 1013.1 | 1.4 | N | 37 | 0.0 |
| 18.02.2026 | 10:35 | 1.5 | 77 | -2.2 | 1013.0 | 1.1 | NNO | 43 | 0.0 |
| 18.02.2026 | 10:45 | 1.5 | 77 | -2.1 | 1013.1 | 1.1 | NNW | 38 | 0.0 |
| 18.02.2026 | 10:55 | 1.2 | 78 | -2.1 | 1013.0 | 2.2 | N | 48 | 0.1 |
| 18.02.2026 | 11:05 | 0.8 | 81 | -2.1 | 1013.0 | 2.5 | NO | 56 | 0.2 |
| 18.02.2026 | 11:15 | 0.8 | 84 | -1.6 | 1012.9 | 1.4 | NNW | 69 | 0.3 |
| 18.02.2026 | 11:25 | 0.9 | 85 | -1.3 | 1012.8 | 1.4 | WNW | 98 | 0.3 |
| 18.02.2026 | 11:35 | 0.9 | 84 | -1.5 | 1012.5 | 0.4 | N | 107 | 0.3 |
| 18.02.2026 | 11:45 | 0.8 | 86 | -1.4 | 1012.3 | 2.9 | SSW | 136 | 0.3 |
| 18.02.2026 | 11:55 | 1.5 | 86 | -0.5 | 1012.0 | 1.4 | NO | 142 | 0.3 |
| 18.02.2026 | 12:05 | 1.0 | 83 | -1.5 | 1011.9 | 3.6 | SSW | 137 | 0.3 |
| 18.02.2026 | 12:15 | 0.9 | 85 | -1.3 | 1011.8 | 4.3 | S | 101 | 0.3 |
| 18.02.2026 | 12:25 | 0.9 | 86 | -1.3 | 1011.7 | 3.2 | SSW | 83 | 0.3 |
| 18.02.2026 | 12:35 | 1.0 | 86 | -1.1 | 1011.8 | 4.3 | S | 69 | 0.3 |
| 18.02.2026 | 12:45 | 1.1 | 87 | -0.8 | 1011.6 | 1.1 | N | 74 | 0.4 |
| 18.02.2026 | 12:55 | 1.4 | 85 | -0.9 | 1011.4 | 3.6 | SSW | 100 | 0.4 |
| 18.02.2026 | 13:05 | 1.3 | 86 | -0.8 | 1011.2 | 4.0 | S | 100 | 0.4 |
| 18.02.2026 | 13:15 | 1.4 | 86 | -0.6 | 1011.3 | 0.4 | N | 85 | 0.4 |
| 18.02.2026 | 13:25 | 1.4 | 86 | -0.7 | 1011.1 | 2.9 | SSO | 71 | 0.4 |
| 18.02.2026 | 13:36 | 1.2 | 83 | -1.3 | 1011.0 | 1.4 | SSW | 69 | 0.4 |
| 18.02.2026 | 13:46 | 1.2 | 84 | -1.2 | 1011.1 | 4.7 | S | 79 | 0.4 |
| 18.02.2026 | 13:56 | 1.9 | 84 | -0.5 | 1010.7 | 4.0 | S | 75 | 0.4 |
| 18.02.2026 | 14:06 | 1.7 | 86 | -0.4 | 1010.6 | 3.2 | S | 97 | 0.4 |
| 18.02.2026 | 14:16 | 1.6 | 85 | -0.7 | 1010.3 | 4.0 | S | 102 | 0.5 |
| 18.02.2026 | 14:26 | 1.8 | 85 | -0.5 | 1009.9 | 5.8 | S | 122 | 0.5 |
| 18.02.2026 | 14:36 | 2.4 | 87 | 0.4 | 1009.5 | 2.2 | SSW | 134 | 0.5 |
| 18.02.2026 | 14:46 | 2.2 | 85 | -0.2 | 1009.4 | 4.3 | S | 94 | 0.5 |
| 18.02.2026 | 14:56 | 2.3 | 87 | 0.3 | 1009.3 | 1.4 | ONO | 92 | 0.5 |
| 18.02.2026 | 15:06 | 2.3 | 86 | 0.1 | 1008.9 | 4.0 | S | 100 | 0.5 |
| 18.02.2026 | 15:16 | 2.5 | 87 | 0.5 | 1008.7 | 2.5 | N | 111 | 0.5 |
| 18.02.2026 | 15:26 | 2.7 | 85 | 0.4 | 1008.4 | 1.4 | NW | 101 | 0.5 |
| 18.02.2026 | 15:36 | 2.1 | 85 | -0.2 | 1008.2 | 3.2 | SSW | 95 | 0.5 |
| 18.02.2026 | 15:46 | 2.2 | 85 | -0.1 | 1008.0 | 1.8 | S | 79 | 0.5 |
| 18.02.2026 | 15:56 | 2.2 | 85 | 0.0 | 1007.8 | 3.6 | SSW | 79 | 0.5 |
| 18.02.2026 | 16:06 | 2.7 | 85 | 0.4 | 1007.3 | 2.2 | WSW | 90 | 0.5 |
| 18.02.2026 | 16:16 | 2.7 | 84 | 0.3 | 1007.2 | 2.9 | SSW | 81 | 0.5 |
| 18.02.2026 | 16:26 | 2.8 | 82 | 0.1 | 1006.9 | 2.5 | S | 87 | 0.5 |
| 18.02.2026 | 16:36 | 2.4 | 83 | -0.2 | 1006.8 | 2.9 | S | 61 | 0.5 |
| 18.02.2026 | 16:46 | 2.9 | 85 | 0.7 | 1006.7 | 3.6 | NNW | 44 | 0.5 |
| 18.02.2026 | 16:56 | 3.0 | 83 | 0.4 | 1006.4 | 2.9 | WSW | 40 | 0.5 |
| 18.02.2026 | 17:06 | 2.9 | 83 | 0.3 | 1006.4 | 1.8 | N | 26 | 0.5 |
| 18.02.2026 | 17:16 | 2.5 | 83 | -0.1 | 1006.2 | 1.1 | S | 21 | 0.5 |
| 18.02.2026 | 17:26 | 2.6 | 85 | 0.3 | 1006.3 | 0.7 | N | 13 | 0.5 |
| 18.02.2026 | 17:36 | 3.0 | 84 | 0.5 | 1006.0 | 0.4 | N | 7 | 0.5 |
| 18.02.2026 | 17:46 | 2.8 | 84 | 0.3 | 1005.8 | 2.2 | S | 3 | 0.5 |
| 18.02.2026 | 17:56 | 3.0 | 85 | 0.7 | 1005.9 | 2.9 | N | 2 | 0.5 |
| 18.02.2026 | 18:06 | 2.9 | 84 | 0.5 | 1006.1 | 1.4 | W | 0 | 0.5 |
| 18.02.2026 | 18:16 | 2.7 | 85 | 0.4 | 1006.0 | 2.2 | NO | 0 | 0.5 |
| 18.02.2026 | 18:26 | 2.6 | 84 | 0.3 | 1005.7 | 1.4 | NNO | 0 | 0.5 |
| 18.02.2026 | 18:36 | 2.5 | 86 | 0.3 | 1005.9 | 0.4 | N | 0 | 0.5 |
| 18.02.2026 | 18:47 | 2.5 | 86 | 0.3 | 1005.7 | 1.1 | NNO | 0 | 0.5 |
| 18.02.2026 | 18:57 | 2.6 | 86 | 0.5 | 1005.6 | 1.4 | N | 0 | 0.5 |
| 18.02.2026 | 19:07 | 2.6 | 86 | 0.6 | 1005.3 | 1.1 | SSO | 0 | 0.5 |
| 18.02.2026 | 19:17 | 2.7 | 86 | 0.6 | 1005.4 | 1.8 | S | 0 | 0.5 |
| 18.02.2026 | 19:27 | 2.4 | 88 | 0.5 | 1005.1 | 2.2 | NNO | 0 | 0.5 |
| 18.02.2026 | 19:37 | 2.2 | 88 | 0.5 | 1004.8 | 1.8 | N | 0 | 0.5 |
| 18.02.2026 | 19:47 | 2.2 | 88 | 0.4 | 1004.9 | 1.4 | S | 0 | 0.5 |
| 18.02.2026 | 19:57 | 2.4 | 87 | 0.5 | 1004.9 | 0.7 | N | 0 | 0.5 |
| 18.02.2026 | 20:07 | 2.2 | 88 | 0.4 | 1004.7 | 0.7 | N | 0 | 0.5 |
| 18.02.2026 | 20:17 | 2.0 | 88 | 0.3 | 1004.8 | 2.2 | NO | 0 | 0.5 |
| 18.02.2026 | 20:27 | 1.9 | 88 | 0.1 | 1004.7 | 3.6 | NNO | 0 | 0.5 |
| 18.02.2026 | 20:37 | 2.2 | 88 | 0.5 | 1004.5 | 1.1 | N | 0 | 0.5 |
| 18.02.2026 | 20:47 | 2.1 | 88 | 0.2 | 1004.3 | 2.5 | NO | 0 | 0.5 |
| 18.02.2026 | 20:57 | 1.9 | 89 | 0.3 | 1004.3 | 2.2 | NO | 0 | 0.5 |
| 18.02.2026 | 21:07 | 1.9 | 89 | 0.3 | 1004.1 | 3.6 | NNO | 0 | 0.5 |
| 18.02.2026 | 21:17 | 2.0 | 89 | 0.3 | 1004.0 | 0.7 | NNO | 0 | 0.5 |
| 18.02.2026 | 21:27 | 2.1 | 88 | 0.3 | 1004.1 | 0.7 | N | 0 | 0.5 |
| 18.02.2026 | 21:37 | 2.1 | 88 | 0.3 | 1004.1 | 1.8 | S | 0 | 0.5 |
| 18.02.2026 | 21:47 | 1.8 | 89 | 0.2 | 1003.9 | 2.5 | S | 0 | 0.5 |
| 18.02.2026 | 21:57 | 1.6 | 89 | 0.0 | 1003.6 | 2.9 | NNO | 0 | 0.5 |
| 18.02.2026 | 22:07 | 1.5 | 90 | 0.0 | 1003.3 | 1.8 | NNO | 0 | 0.5 |
| 18.02.2026 | 22:17 | 1.6 | 89 | 0.0 | 1003.2 | 2.9 | N | 0 | 0.5 |
| 18.02.2026 | 22:27 | 1.3 | 90 | -0.1 | 1003.1 | 2.9 | NNO | 0 | 0.5 |
| 18.02.2026 | 22:37 | 1.3 | 90 | -0.2 | 1003.1 | 1.8 | NNW | 0 | 0.5 |
| 18.02.2026 | 22:47 | 1.1 | 89 | -0.5 | 1002.9 | 2.5 | NNO | 0 | 0.5 |
| 18.02.2026 | 22:57 | 1.4 | 90 | -0.1 | 1002.7 | 0.4 | N | 0 | 0.5 |
| 18.02.2026 | 23:07 | 1.0 | 90 | -0.5 | 1002.5 | 1.1 | NNO | 0 | 0.5 |
| 18.02.2026 | 23:17 | 1.0 | 90 | -0.5 | 1002.2 | 2.2 | ONO | 0 | 0.5 |
| 18.02.2026 | 23:27 | 0.7 | 90 | -0.8 | 1002.2 | 3.6 | N | 0 | 0.5 |
| 18.02.2026 | 23:37 | 0.9 | 91 | -0.4 | 1001.8 | 2.2 | N | 0 | 0.5 |
| 18.02.2026 | 23:47 | 1.1 | 91 | -0.3 | 1001.9 | 2.9 | N | 0 | 0.5 |
| 18.02.2026 | 23:58 | 1.1 | 92 | -0.1 | 1001.9 | 9.4 | NNO | 0 | 0.5 |